Latest Weather Observations for Weipa

IDQ60801

Issued at 6:02 pm EST Friday 28 April 2017 (issued every 30 minutes, with the page automatically refreshed every 10 minutes)

About weather observations | Map of weather stations | Latest weather observations for QLD | Other Formats
Station Details ID: 027045 Name: WEIPA AERO Lat: -12.68 Lon: 141.92 Height: 17.96 m
Data from the previous 72 hours. | See also: Recent months at Weipa
Date/Time
EST
Temp
°C
App
Temp
°C
Dew
Point
°C
Rel
Hum
%
Delta-T
°C
Wind Press
QNH
hPa
Press
MSL
hPa
Rain since
9am
mm
Dir  Spd
km/h
Gust
km/h
Spd
kts
Gust
kts
28/06:00pm 30.1 32.8 20.7 57 6.3 ESE 7 9 4 5 1010.2 1010.0 0.0
28/05:30pm 30.9 31.8 20.1 52 7.1 ESE 15 20 8 11 1009.9 - 0.0
28/05:00pm 31.5 32.7 20.0 50 7.6 ESE 13 19 7 10 1009.6 - 0.0
28/04:30pm 30.7 32.4 20.2 53 6.9 ESE 11 17 6 9 1009.4 - 0.0
28/04:00pm 32.0 33.3 20.2 49 7.8 E 13 20 7 11 1009.2 - 0.0
28/03:30pm 31.9 32.7 19.8 48 8.0 ESE 15 20 8 11 1009.1 - 0.0
28/03:00pm 32.1 33.5 20.4 50 7.8 ENE 13 19 7 10 1009.2 1009.0 0.0
28/02:30pm 31.6 31.9 20.4 51 7.4 E 19 26 10 14 1009.6 - 0.0
28/02:00pm 31.3 31.8 20.0 51 7.5 E 17 28 9 15 1010.1 - 0.0
28/01:30pm 31.4 32.2 20.6 52 7.2 E 17 26 9 14 1010.5 - 0.0
28/01:00pm 31.0 32.5 20.5 53 7.0 E 13 22 7 12 1011.0 - 0.0
28/12:30pm 30.6 32.6 20.8 56 6.5 ESE 11 22 6 12 1011.6 - 0.0
28/12:00pm 30.2 31.3 20.5 56 6.4 ESE 15 22 8 12 1012.1 1011.9 0.0
28/11:30am 29.4 30.3 20.0 57 6.2 ESE 15 20 8 11 1012.7 - 0.0
28/11:00am 28.8 30.3 21.2 63 5.1 E 15 24 8 13 1013.4 - 0.0
28/10:30am 28.0 29.7 20.9 65 4.7 ESE 13 22 7 12 1013.6 - 0.0
28/10:00am 28.1 29.3 21.5 67 4.4 ESE 17 22 9 12 1013.8 - 0.0
28/09:30am 27.1 29.4 22.0 73 3.4 ESE 13 19 7 10 1013.8 - 0.0
28/09:00am 26.2 28.8 21.9 77 2.9 ESE 11 17 6 9 1013.6 1013.4 0.0
28/08:30am 25.3 27.9 22.0 82 2.2 ESE 11 15 6 8 1013.5 - 0.0
28/08:00am 24.4 27.9 22.2 87 1.5 ESE 7 11 4 6 1013.0 - 0.0
28/07:30am 23.4 27.0 22.0 92 0.9 ESE 6 7 3 4 1012.9 - 0.0
28/07:00am 22.4 26.0 21.2 93 0.8 ESE 4 6 2 3 1012.5 - 0.0
28/06:30am 22.2 25.6 21.0 93 0.8 ESE 4 6 2 3 1012.0 - 0.0
28/06:00am 22.2 26.4 21.0 93 0.8 CALM 0 2 0 1 1011.6 1011.4 0.0
28/05:30am 22.5 26.9 21.3 93 0.8 CALM 0 2 0 1 1011.2 - 0.0
28/05:00am 22.4 26.3 21.1 92 0.8 ESE 2 4 1 2 1011.0 - 0.0
28/04:30am 22.6 26.5 21.2 92 0.9 SE 2 6 1 3 1010.9 - 0.0
28/04:00am 22.9 27.2 21.2 90 1.1 CALM 0 0 0 0 1010.8 - 0.0
28/03:30am 23.2 27.0 21.6 91 1.1 E 4 6 2 3 1010.8 - 0.0
28/03:00am 23.3 26.8 21.8 91 1.0 E 6 7 3 4 1011.0 1010.8 0.0
28/02:30am 23.5 28.3 22.1 92 0.9 CALM 0 4 0 2 1011.2 - 0.0
28/02:00am 23.9 28.2 22.6 92 0.9 E 4 6 2 3 1011.3 - 0.0
28/01:30am 24.1 28.8 22.6 91 1.0 E 2 4 1 2 1011.4 - 0.0
28/01:00am 24.3 28.8 22.9 92 0.9 ESE 4 4 2 2 1011.5 - 0.0
28/12:30am 24.5 29.7 22.9 91 1.1 CALM 0 4 0 2 1011.7 - 0.0
28/12:00am 24.8 30.0 22.9 89 1.3 CALM 0 2 0 1 1011.7 1011.5 0.0
 
Date/Time
EST
Temp
°C
App
Temp
°C
Dew
Point
°C
Rel
Hum
%
Delta-T
°C
Wind Press
QNH
hPa
Press
MSL
hPa
Rain since
9am
mm
Dir  Spd
km/h
Gust
km/h
Spd
kts
Gust
kts
27/11:30pm 25.0 29.2 23.1 89 1.3 E 6 6 3 3 1012.0 - 0.0
27/11:00pm 25.4 29.7 23.3 88 1.4 ESE 6 6 3 3 1012.0 - 0.0
27/10:30pm 25.5 29.7 23.2 87 1.6 ESE 6 7 3 4 1012.1 - 0.0
27/10:00pm 25.8 31.2 23.2 85 1.8 CALM 0 0 0 0 1012.2 - 0.0
27/09:30pm 26.3 31.4 23.3 83 2.0 SSE 2 6 1 3 1012.0 - 0.0
27/09:00pm 26.5 31.1 23.1 81 2.3 S 4 7 2 4 1011.6 1011.4 0.0
27/08:30pm 26.7 31.5 22.9 79 2.6 S 2 6 1 3 1011.2 - 0.0
27/08:00pm 27.0 31.1 23.0 79 2.7 SSW 6 9 3 5 1010.9 - 0.0
27/07:30pm 27.2 31.4 23.1 78 2.8 SSW 6 9 3 5 1010.6 - 0.0
27/07:00pm 27.6 31.8 23.2 77 3.0 SW 6 11 3 6 1010.3 - 0.0
27/06:30pm 27.9 32.3 23.4 76 3.1 SW 6 9 3 5 1010.0 - 0.0
27/06:00pm 28.6 32.8 23.4 73 3.6 WSW 7 15 4 8 1009.7 1009.5 0.0
27/05:30pm 29.3 33.3 23.7 72 3.9 WSW 9 17 5 9 1009.5 - 0.0
27/05:00pm 29.6 33.3 23.2 68 4.4 WSW 9 19 5 10 1009.2 - 0.0
27/04:30pm 29.5 32.9 23.3 69 4.3 WSW 11 19 6 10 1009.2 - 0.0
27/04:00pm 29.4 33.3 22.9 68 4.4 SW 7 13 4 7 1009.0 - 0.0
27/03:30pm 31.8 34.1 20.7 51 7.4 SSE 9 15 5 8 1009.0 - 0.0
27/03:00pm 31.7 34.0 20.6 51 7.4 SSE 9 13 5 7 1009.3 1009.1 0.0
27/02:30pm 32.4 33.7 19.4 46 8.5 ESE 11 22 6 12 1009.6 - 0.0
27/02:00pm 32.4 33.5 19.7 47 8.4 ESE 13 19 7 10 1010.1 - 0.0
27/01:30pm 31.9 34.0 21.0 52 7.3 SE 11 19 6 10 1010.3 - 0.0
27/01:00pm 31.5 33.3 21.1 54 7.0 SE 13 20 7 11 1010.7 - 0.0
27/12:30pm 30.7 32.0 20.8 55 6.6 E 15 24 8 13 1011.0 - 0.0
27/12:00pm 30.9 32.6 21.7 58 6.2 ESE 15 24 8 13 1011.5 1011.3 0.0
27/11:30am 30.2 32.7 21.7 60 5.7 SE 11 22 6 12 1012.2 - 0.0
27/11:00am 29.2 31.4 21.8 64 5.0 SE 13 20 7 11 1012.8 - 0.0
27/10:30am 29.1 32.3 22.4 67 4.5 SE 9 19 5 10 1013.1 - 0.0
27/10:00am 28.6 31.5 22.5 69 4.1 E 11 19 6 10 1013.3 - 0.0
27/09:30am 27.7 29.5 21.8 70 4.0 E 15 19 8 10 1013.1 - 0.0
27/09:00am 27.2 29.8 22.7 76 3.1 ESE 13 19 7 10 1012.8 1012.6 0.6
27/08:30am 26.4 29.8 22.7 80 2.5 ESE 9 13 5 7 1012.6 - 0.6
27/08:00am 24.8 28.4 22.4 86 1.6 SSE 7 11 4 6 1012.4 - 0.6
27/07:30am 23.8 28.0 22.4 92 0.9 S 4 6 2 3 1012.2 - 0.6
27/07:00am 22.7 26.8 21.5 93 0.8 SE 2 6 1 3 1011.5 - 0.6
27/06:30am 22.7 27.1 21.4 92 0.9 CALM 0 2 0 1 1010.9 - 0.6
27/06:00am 22.9 27.0 21.6 92 0.9 SE 2 4 1 2 1010.5 1010.3 0.6
27/05:30am 23.0 27.6 21.7 92 0.9 CALM 0 0 0 0 1010.3 - 0.6
27/05:00am 23.4 28.0 21.8 91 1.1 CALM 0 0 0 0 1010.1 - 0.6
27/04:30am 24.0 28.8 22.1 89 1.3 CALM 0 4 0 2 1010.0 - 0.6
27/04:00am 24.1 28.1 22.1 88 1.3 SE 4 6 2 3 1010.1 - 0.6
27/03:30am 23.9 27.8 21.9 88 1.3 S 4 6 2 3 1010.2 - 0.6
27/03:00am 23.9 27.4 21.9 88 1.3 ESE 6 7 3 4 1010.3 1010.1 0.6
27/02:30am 23.8 27.6 21.7 88 1.4 SSE 4 6 2 3 1010.3 - 0.6
27/02:00am 24.2 27.6 21.7 86 1.7 ESE 6 7 3 4 1010.5 - 0.6
27/01:30am 24.5 27.9 21.6 84 1.9 ESE 6 7 3 4 1010.7 - 0.6
27/01:00am 25.1 28.3 21.6 81 2.3 ESE 7 9 4 5 1011.3 - 0.6
27/12:30am 25.4 27.9 21.7 80 2.5 ESE 11 15 6 8 1012.0 - 0.6
27/12:00am 25.6 28.9 21.8 79 2.5 E 7 13 4 7 1012.5 1012.3 0.6
 
Date/Time
EST
Temp
°C
App
Temp
°C
Dew
Point
°C
Rel
Hum
%
Delta-T
°C
Wind Press
QNH
hPa
Press
MSL
hPa
Rain since
9am
mm
Dir  Spd
km/h
Gust
km/h
Spd
kts
Gust
kts
26/11:30pm 25.6 29.1 21.9 80 2.5 ESE 6 9 3 5 1012.7 - 0.6
26/11:00pm 25.9 29.4 21.9 78 2.7 E 6 7 3 4 1012.8 - 0.6
26/10:30pm 26.1 29.3 21.7 77 2.9 E 7 11 4 6 1012.7 - 0.6
26/10:00pm 26.5 29.2 21.4 73 3.4 E 9 17 5 9 1012.4 - 0.6
26/09:30pm 26.7 29.4 21.3 72 3.6 E 9 13 5 7 1012.4 - 0.6
26/09:00pm 26.9 29.6 21.3 71 3.7 E 9 15 5 8 1012.3 1012.1 0.6
26/08:30pm 26.9 30.0 21.4 72 3.7 E 7 11 4 6 1011.8 - 0.6
26/08:00pm 27.0 30.2 21.3 71 3.8 E 6 7 3 4 1011.4 - 0.6
26/07:30pm 27.4 30.5 21.1 68 4.2 E 6 9 3 5 1010.9 - 0.6
26/07:00pm 27.7 30.2 21.1 67 4.4 ESE 9 13 5 7 1010.4 - 0.6
26/06:30pm 28.1 30.1 20.7 64 4.9 ESE 11 17 6 9 1009.9 - 0.6
26/06:00pm 28.4 30.1 20.9 64 5.0 ESE 13 20 7 11 1009.5 1009.3 0.6
26/05:30pm 28.7 31.2 22.4 68 4.3 ESE 13 20 7 11 1009.5 - 0.6
26/05:00pm 29.0 32.8 23.4 72 3.8 E 9 15 5 8 1009.2 - 0.6
26/04:30pm 29.3 32.4 23.6 71 3.9 ESE 13 19 7 10 1008.8 - 0.6
26/04:00pm 29.3 31.5 23.2 69 4.2 ESE 17 22 9 12 1008.6 - 0.6
26/03:30pm 29.3 32.5 23.7 72 3.9 E 13 22 7 12 1008.5 - 0.6
26/03:03pm 28.1 31.5 24.0 78 2.8 SE 13 19 7 10 1008.7 - 0.6
26/03:00pm 28.2 31.6 24.0 78 2.9 ESE 13 19 7 10 1008.8 1008.6 0.6
26/02:47pm 27.9 30.0 23.7 78 2.9 E 19 30 10 16 1009.0 - 0.6
26/02:30pm 30.2 31.9 23.0 65 4.9 ESE 19 28 10 15 1009.1 - 0.2
26/02:00pm 30.1 32.9 23.7 68 4.4 ESE 15 22 8 12 1009.4 - 0.2
26/01:30pm 29.8 32.2 23.6 69 4.3 E 17 24 9 13 1009.9 - 0.2
26/01:00pm 29.8 30.6 23.1 67 4.6 E 24 33 13 18 1010.3 - 0.2
26/12:30pm 29.9 30.7 23.1 67 4.7 E 24 33 13 18 1010.5 - 0.2
26/12:00pm 30.1 30.8 23.0 65 4.9 ESE 24 37 13 20 1011.1 1010.9 0.2
26/11:30am 30.0 30.2 22.7 65 5.0 E 26 35 14 19 1011.5 - 0.0
26/11:00am 29.6 29.6 23.1 68 4.5 ESE 28 39 15 21 1011.7 - 0.0
26/10:30am 28.9 29.9 22.9 70 4.1 E 22 32 12 17 1012.1 - 0.0
26/10:00am 28.4 29.4 22.8 71 3.8 ESE 22 33 12 18 1012.1 - 0.0
26/09:30am 27.8 28.8 22.9 74 3.3 E 22 33 12 18 1012.5 - 0.0
26/09:00am 26.8 27.8 22.8 79 2.7 ESE 22 33 12 18 1012.5 1012.3 0.8
26/08:30am 26.6 28.3 23.1 81 2.4 ESE 19 26 10 14 1012.1 - 0.8
26/08:00am 25.6 28.3 23.4 88 1.5 ESE 15 24 8 13 1011.8 - 0.8
26/07:30am 24.8 27.1 22.8 89 1.3 ESE 15 22 8 12 1011.3 - 0.8
26/07:00am 24.7 27.8 22.8 89 1.3 ESE 11 17 6 9 1011.2 - 0.8
26/06:30am 24.5 27.9 22.7 90 1.2 SE 9 17 5 9 1010.8 - 0.8
26/06:00am 24.3 27.3 22.6 90 1.1 ESE 11 17 6 9 1010.3 1010.1 0.8
26/05:30am 24.4 27.4 22.6 90 1.2 ESE 11 17 6 9 1010.2 - 0.8
26/05:00am 24.4 27.0 22.6 90 1.2 SE 13 17 7 9 1010.0 - 0.8
26/04:30am 24.4 27.0 22.7 90 1.1 ESE 13 17 7 9 1010.2 - 0.8
26/04:00am 24.4 27.4 22.7 90 1.1 ESE 11 15 6 8 1010.1 - 0.8
26/03:30am 24.7 28.1 22.7 89 1.3 SE 9 15 5 8 1010.2 - 0.8
26/03:00am 24.8 28.6 22.8 89 1.4 SE 7 11 4 6 1010.1 1009.9 0.8
26/02:30am 24.8 29.0 23.1 90 1.2 SE 6 9 3 5 1010.6 - 0.8
26/02:00am 24.8 28.9 23.2 91 1.1 SE 7 9 4 5 1011.0 - 0.8
26/01:30am 24.8 29.5 23.3 91 1.0 SE 4 6 2 3 1011.5 - 0.8
26/01:00am 24.7 30.2 23.4 92 0.9 CALM 0 0 0 0 1011.8 - 0.8
26/12:30am 24.6 30.0 23.3 92 0.9 CALM 0 0 0 0 1011.9 - 0.8
26/12:00am 24.6 30.0 23.3 92 0.9 CALM 0 0 0 0 1012.0 1011.8 0.8
 
Date/Time
EST
Temp
°C
App
Temp
°C
Dew
Point
°C
Rel
Hum
%
Delta-T
°C
Wind Press
QNH
hPa
Press
MSL
hPa
Rain since
9am
mm
Dir  Spd
km/h
Gust
km/h
Spd
kts
Gust
kts
25/11:30pm 24.6 30.1 23.4 93 0.8 CALM 0 2 0 1 1012.1 - 0.8
25/11:00pm 24.6 30.1 23.4 93 0.8 CALM 0 0 0 0 1012.0 - 0.8
25/10:30pm 24.6 30.0 23.2 92 0.9 CALM 0 0 0 0 1011.8 - 0.8
25/10:00pm 24.4 29.7 23.1 92 0.9 CALM 0 2 0 1 1012.0 - 0.8
25/09:30pm 24.4 29.3 23.0 92 0.9 SSW 2 4 1 2 1012.0 - 0.8
25/09:00pm 24.4 28.5 23.0 92 0.9 SE 6 9 3 5 1011.8 1011.6 0.8
25/08:30pm 24.6 28.7 22.9 90 1.1 E 6 9 3 5 1012.0 - 0.8
25/08:00pm 24.5 27.3 23.0 91 1.0 NE 13 20 7 11 1012.3 - 0.8
25/07:30pm 24.4 28.4 23.1 92 0.9 NNE 7 15 4 8 1012.0 - 0.8
25/07:00pm 24.3 28.3 22.8 91 1.0 NNE 6 9 3 5 1011.3 - 0.8
25/06:30pm 24.4 27.1 22.8 91 1.1 N 13 19 7 10 1011.0 - 0.8

Other Formats:

Comma delimited format used in spreadsheet applications
http://www.bom.gov.au/fwo/IDQ60801/IDQ60801.94170.axf

JavaScript Object Notation format (JSON) in row-major order
http://www.bom.gov.au/fwo/IDQ60801/IDQ60801.94170.json